Aviation Digital Data Service (ADDS)

Output produced by METARs form (0020 UTC 25 April 2019)
found at http://www.aviationweather.gov/metar/data/
 
METAR text: SGAS 250000Z 00000KT 9999 VCTS FEW030 FEW040CB SCT080 26/24Q1013
Conditions at: SGAS (ASUNCION/SILVIO , PY) observed 0000 UTC 25 April 2019
Temperature: missing
Dewpoint: missing
Pressure (altimeter): 29.91 inches Hg (1013.0 mb)
Winds: calm
Visibility: 6 or more miles (10+ km)
Ceiling: at least 12,000 feet AGL
Clouds: few clouds at 3000 feet AGL
few clouds at 4000 feet AGL
scattered clouds at 8000 feet AGL
Weather: VCTS  (thunderstorm in vicinity)

METAR text: SGAS 242300Z 09003KT 9000 VCTS FEW030 FEW040CB SCT080 27/24Q1012
Conditions at: SGAS (ASUNCION/SILVIO , PY) observed 2300 UTC 24 April 2019
Temperature: missing
Dewpoint: missing
Pressure (altimeter): 29.88 inches Hg (1012.0 mb)
Winds: from the E (90 degrees) at 3 MPH (3 knots; 1.5 m/s)
Visibility: 6 miles ( 9 km)
Ceiling: at least 12,000 feet AGL
Clouds: few clouds at 3000 feet AGL
few clouds at 4000 feet AGL
scattered clouds at 8000 feet AGL
Weather: VCTS  (thunderstorm in vicinity)

METAR text: SGAS 242210Z 12004KT 9999 VCTS SCT027 FEW040CB BKN080 27/24 Q1012
Conditions at: SGAS (ASUNCION/SILVIO , PY) observed 2210 UTC 24 April 2019
Temperature: 27.0°C (81°F)
Dewpoint: 24.0°C (75°F) [RH = 84%]
Pressure (altimeter): 29.88 inches Hg (1012.0 mb)
Winds: from the ESE (120 degrees) at 5 MPH (4 knots; 2.1 m/s)
Visibility: 6 or more miles (10+ km)
Ceiling: 8000 feet AGL
Clouds: scattered clouds at 2700 feet AGL
few clouds at 4000 feet AGL
broken clouds at 8000 feet AGL
Weather: VCTS  (thunderstorm in vicinity)

METAR text: SGAS 242200Z 09004KT 9999 SCT033 BKN080 28/23 Q1012
Conditions at: SGAS (ASUNCION/SILVIO , PY) observed 2200 UTC 24 April 2019
Temperature: 28.0°C (82°F)
Dewpoint: 23.0°C (73°F) [RH = 74%]
Pressure (altimeter): 29.88 inches Hg (1012.0 mb)
Winds: from the E (90 degrees) at 5 MPH (4 knots; 2.1 m/s)
Visibility: 6 or more miles (10+ km)
Ceiling: 8000 feet AGL
Clouds: scattered clouds at 3300 feet AGL
broken clouds at 8000 feet AGL
Weather: no significant weather observed at this time

METAR text: SGAS 242100Z 07004KT 9999 SCT033 BKN080 30/23 Q1013
Conditions at: SGAS (ASUNCION/SILVIO , PY) observed 2100 UTC 24 April 2019
Temperature: 30.0°C (86°F)
Dewpoint: 23.0°C (73°F) [RH = 66%]
Pressure (altimeter): 29.91 inches Hg (1013.0 mb)
Winds: from the ENE (70 degrees) at 5 MPH (4 knots; 2.1 m/s)
Visibility: 6 or more miles (10+ km)
Ceiling: 8000 feet AGL
Clouds: scattered clouds at 3300 feet AGL
broken clouds at 8000 feet AGL
Weather: no significant weather observed at this time

METAR text: SGAS 242000Z 04006KT 9999 SCT033 BKN080 31/23 Q1013
Conditions at: SGAS (ASUNCION/SILVIO , PY) observed 2000 UTC 24 April 2019
Temperature: 31.0°C (88°F)
Dewpoint: 23.0°C (73°F) [RH = 63%]
Pressure (altimeter): 29.91 inches Hg (1013.0 mb)
Winds: from the NE (40 degrees) at 7 MPH (6 knots; 3.1 m/s)
Visibility: 6 or more miles (10+ km)
Ceiling: 8000 feet AGL
Clouds: scattered clouds at 3300 feet AGL
broken clouds at 8000 feet AGL
Weather: no significant weather observed at this time

METAR text: SGAS 241900Z 02006KT 9999 SCT033 BKN080 32/23 Q1013
Conditions at: SGAS (ASUNCION/SILVIO , PY) observed 1900 UTC 24 April 2019
Temperature: 32.0°C (90°F)
Dewpoint: 23.0°C (73°F) [RH = 59%]
Pressure (altimeter): 29.91 inches Hg (1013.0 mb)
Winds: from the NNE (20 degrees) at 7 MPH (6 knots; 3.1 m/s)
Visibility: 6 or more miles (10+ km)
Ceiling: 8000 feet AGL
Clouds: scattered clouds at 3300 feet AGL
broken clouds at 8000 feet AGL
Weather: no significant weather observed at this time

METAR text: SGAS 241800Z 03008KT 9999 SCT033 32/23 Q1013
Conditions at: SGAS (ASUNCION/SILVIO , PY) observed 1800 UTC 24 April 2019
Temperature: 32.0°C (90°F)
Dewpoint: 23.0°C (73°F) [RH = 59%]
Pressure (altimeter): 29.91 inches Hg (1013.0 mb)
Winds: from the NNE (30 degrees) at 9 MPH (8 knots; 4.1 m/s)
Visibility: 6 or more miles (10+ km)
Ceiling: at least 12,000 feet AGL
Clouds: scattered clouds at 3300 feet AGL
Weather: no significant weather observed at this time

METAR text: SGAS 241700Z 05006KT 9999 SCT033 30/23 Q1014
Conditions at: SGAS (ASUNCION/SILVIO , PY) observed 1700 UTC 24 April 2019
Temperature: 30.0°C (86°F)
Dewpoint: 23.0°C (73°F) [RH = 66%]
Pressure (altimeter): 29.94 inches Hg (1014.0 mb)
Winds: from the NE (50 degrees) at 7 MPH (6 knots; 3.1 m/s)
Visibility: 6 or more miles (10+ km)
Ceiling: at least 12,000 feet AGL
Clouds: scattered clouds at 3300 feet AGL
Weather: no significant weather observed at this time

METAR text: SGAS 241600Z 07008KT 9999 FEW033 31/23 Q1015
Conditions at: SGAS (ASUNCION/SILVIO , PY) observed 1600 UTC 24 April 2019
Temperature: 31.0°C (88°F)
Dewpoint: 23.0°C (73°F) [RH = 63%]
Pressure (altimeter): 29.97 inches Hg (1015.0 mb)
Winds: from the ENE (70 degrees) at 9 MPH (8 knots; 4.1 m/s)
Visibility: 6 or more miles (10+ km)
Ceiling: at least 12,000 feet AGL
Clouds: few clouds at 3300 feet AGL
Weather: no significant weather observed at this time

METAR text: SGAS 241500Z 06008KT CAVOK 30/23 Q1016
Conditions at: SGAS (ASUNCION/SILVIO , PY) observed 1500 UTC 24 April 2019
Temperature: 30.0°C (86°F)
Dewpoint: 23.0°C (73°F) [RH = 66%]
Pressure (altimeter): 30.00 inches Hg (1016.0 mb)
Winds: from the ENE (60 degrees) at 9 MPH (8 knots; 4.1 m/s)
Visibility: 6 or more miles (10+ km)
Ceiling: ceiling and visibility are OK
Clouds: unknown
Weather: no significant weather observed at this time

METAR text: SGAS 241400Z 06008KT CAVOK 29/23 Q1016
Conditions at: SGAS (ASUNCION/SILVIO , PY) observed 1400 UTC 24 April 2019
Temperature: 29.0°C (84°F)
Dewpoint: 23.0°C (73°F) [RH = 70%]
Pressure (altimeter): 30.00 inches Hg (1016.0 mb)
Winds: from the ENE (60 degrees) at 9 MPH (8 knots; 4.1 m/s)
Visibility: 6 or more miles (10+ km)
Ceiling: ceiling and visibility are OK
Clouds: unknown
Weather: no significant weather observed at this time

METAR text: SGAS 241330Z 08005KT CAVOK 29/23 Q1016
Conditions at: SGAS (ASUNCION/SILVIO , PY) observed 1330 UTC 24 April 2019
Temperature: 29.0°C (84°F)
Dewpoint: 23.0°C (73°F) [RH = 70%]
Pressure (altimeter): 30.00 inches Hg (1016.0 mb)
Winds: from the E (80 degrees) at 6 MPH (5 knots; 2.6 m/s)
Visibility: 6 or more miles (10+ km)
Ceiling: ceiling and visibility are OK
Clouds: unknown
Weather: no significant weather observed at this time

METAR text: SGAS 241300Z 08005KT CAVOK 28/23 Q1017
Conditions at: SGAS (ASUNCION/SILVIO , PY) observed 1300 UTC 24 April 2019
Temperature: 28.0°C (82°F)
Dewpoint: 23.0°C (73°F) [RH = 74%]
Pressure (altimeter): 30.03 inches Hg (1017.0 mb)
Winds: from the E (80 degrees) at 6 MPH (5 knots; 2.6 m/s)
Visibility: 6 or more miles (10+ km)
Ceiling: ceiling and visibility are OK
Clouds: unknown
Weather: no significant weather observed at this time

METAR text: SGAS 241230Z 09005KT CAVOK 27/23 Q1016
Conditions at: SGAS (ASUNCION/SILVIO , PY) observed 1230 UTC 24 April 2019
Temperature: 27.0°C (81°F)
Dewpoint: 23.0°C (73°F) [RH = 79%]
Pressure (altimeter): 30.00 inches Hg (1016.0 mb)
Winds: from the E (90 degrees) at 6 MPH (5 knots; 2.6 m/s)
Visibility: 6 or more miles (10+ km)
Ceiling: ceiling and visibility are OK
Clouds: unknown
Weather: no significant weather observed at this time

METAR text: SGAS 241200Z 09005KT 9999 FEW020 27/23 Q1016
Conditions at: SGAS (ASUNCION/SILVIO , PY) observed 1200 UTC 24 April 2019
Temperature: 27.0°C (81°F)
Dewpoint: 23.0°C (73°F) [RH = 79%]
Pressure (altimeter): 30.00 inches Hg (1016.0 mb)
Winds: from the E (90 degrees) at 6 MPH (5 knots; 2.6 m/s)
Visibility: 6 or more miles (10+ km)
Ceiling: at least 12,000 feet AGL
Clouds: few clouds at 2000 feet AGL
Weather: no significant weather observed at this time

METAR text: SGAS 241130Z 09004KT 9999 FEW020 25/22 Q1016
Conditions at: SGAS (ASUNCION/SILVIO , PY) observed 1130 UTC 24 April 2019
Temperature: 25.0°C (77°F)
Dewpoint: 22.0°C (72°F) [RH = 83%]
Pressure (altimeter): 30.00 inches Hg (1016.0 mb)
Winds: from the E (90 degrees) at 5 MPH (4 knots; 2.1 m/s)
Visibility: 6 or more miles (10+ km)
Ceiling: at least 12,000 feet AGL
Clouds: few clouds at 2000 feet AGL
Weather: no significant weather observed at this time

METAR text: SGAS 241100Z 14004KT 9999 FEW033 23/22 Q1016
Conditions at: SGAS (ASUNCION/SILVIO , PY) observed 1100 UTC 24 April 2019
Temperature: 23.0°C (73°F)
Dewpoint: 22.0°C (72°F) [RH = 94%]
Pressure (altimeter): 30.00 inches Hg (1016.0 mb)
Winds: from the SE (140 degrees) at 5 MPH (4 knots; 2.1 m/s)
Visibility: 6 or more miles (10+ km)
Ceiling: at least 12,000 feet AGL
Clouds: few clouds at 3300 feet AGL
Weather: no significant weather observed at this time

METAR text: SGAS 241000Z 14004KT 9999 FEW033 23/22 Q1014
Conditions at: SGAS (ASUNCION/SILVIO , PY) observed 1000 UTC 24 April 2019
Temperature: 23.0°C (73°F)
Dewpoint: 22.0°C (72°F) [RH = 94%]
Pressure (altimeter): 29.94 inches Hg (1014.0 mb)
Winds: from the SE (140 degrees) at 5 MPH (4 knots; 2.1 m/s)
Visibility: 6 or more miles (10+ km)
Ceiling: at least 12,000 feet AGL
Clouds: few clouds at 3300 feet AGL
Weather: no significant weather observed at this time

METAR text: SGAS 240900Z 14004KT 100V170 CAVOK 22/21 Q1015
Conditions at: SGAS (ASUNCION/SILVIO , PY) observed 0900 UTC 24 April 2019
Temperature: 22.0°C (72°F)
Dewpoint: 21.0°C (70°F) [RH = 94%]
Pressure (altimeter): 29.97 inches Hg (1015.0 mb)
Winds: from the SE (140 degrees) at 5 MPH (4 knots; 2.1 m/s)
Visibility: 6 or more miles (10+ km)
Ceiling: ceiling and visibility are OK
Clouds: unknown
Weather: no significant weather observed at this time

METAR text: SGAS 240800Z 17004KT 140V200 CAVOK 22/21 Q1015
Conditions at: SGAS (ASUNCION/SILVIO , PY) observed 0800 UTC 24 April 2019
Temperature: 22.0°C (72°F)
Dewpoint: 21.0°C (70°F) [RH = 94%]
Pressure (altimeter): 29.97 inches Hg (1015.0 mb)
Winds: from the S (170 degrees) at 5 MPH (4 knots; 2.1 m/s)
Visibility: 6 or more miles (10+ km)
Ceiling: ceiling and visibility are OK
Clouds: unknown
Weather: no significant weather observed at this time

METAR text: SGAS 240700Z 21005KT CAVOK 22/21 Q1015
Conditions at: SGAS (ASUNCION/SILVIO , PY) observed 0700 UTC 24 April 2019
Temperature: 22.0°C (72°F)
Dewpoint: 21.0°C (70°F) [RH = 94%]
Pressure (altimeter): 29.97 inches Hg (1015.0 mb)
Winds: from the SSW (210 degrees) at 6 MPH (5 knots; 2.6 m/s)
Visibility: 6 or more miles (10+ km)
Ceiling: ceiling and visibility are OK
Clouds: unknown
Weather: no significant weather observed at this time

METAR text: SGAS 240600Z 16005KT 130V190 CAVOK 23/22 Q1015
Conditions at: SGAS (ASUNCION/SILVIO , PY) observed 0600 UTC 24 April 2019
Temperature: 23.0°C (73°F)
Dewpoint: 22.0°C (72°F) [RH = 94%]
Pressure (altimeter): 29.97 inches Hg (1015.0 mb)
Winds: from the SSE (160 degrees) at 6 MPH (5 knots; 2.6 m/s)
Visibility: 6 or more miles (10+ km)
Ceiling: ceiling and visibility are OK
Clouds: unknown
Weather: no significant weather observed at this time

METAR text: SGAS 240500Z 15006KT 110V170 CAVOK 23/22 Q1015
Conditions at: SGAS (ASUNCION/SILVIO , PY) observed 0500 UTC 24 April 2019
Temperature: 23.0°C (73°F)
Dewpoint: 22.0°C (72°F) [RH = 94%]
Pressure (altimeter): 29.97 inches Hg (1015.0 mb)
Winds: from the SSE (150 degrees) at 7 MPH (6 knots; 3.1 m/s)
Visibility: 6 or more miles (10+ km)
Ceiling: ceiling and visibility are OK
Clouds: unknown
Weather: no significant weather observed at this time

METAR text: SGAS 240400Z 15005KT 110V170 CAVOK 24/22 Q1015
Conditions at: SGAS (ASUNCION/SILVIO , PY) observed 0400 UTC 24 April 2019
Temperature: 24.0°C (75°F)
Dewpoint: 22.0°C (72°F) [RH = 89%]
Pressure (altimeter): 29.97 inches Hg (1015.0 mb)
Winds: from the SSE (150 degrees) at 6 MPH (5 knots; 2.6 m/s)
Visibility: 6 or more miles (10+ km)
Ceiling: ceiling and visibility are OK
Clouds: unknown
Weather: no significant weather observed at this time

METAR text: SGAS 240300Z 20002KT CAVOK 24/22 Q1015
Conditions at: SGAS (ASUNCION/SILVIO , PY) observed 0300 UTC 24 April 2019
Temperature: 24.0°C (75°F)
Dewpoint: 22.0°C (72°F) [RH = 89%]
Pressure (altimeter): 29.97 inches Hg (1015.0 mb)
Winds: from the SSW (200 degrees) at 2 MPH (2 knots; 1.0 m/s)
Visibility: 6 or more miles (10+ km)
Ceiling: ceiling and visibility are OK
Clouds: unknown
Weather: no significant weather observed at this time

METAR text: SGAS 240200Z 00000KT CAVOK 23/22 Q1014
Conditions at: SGAS (ASUNCION/SILVIO , PY) observed 0200 UTC 24 April 2019
Temperature: 23.0°C (73°F)
Dewpoint: 22.0°C (72°F) [RH = 94%]
Pressure (altimeter): 29.94 inches Hg (1014.0 mb)
Winds: calm
Visibility: 6 or more miles (10+ km)
Ceiling: ceiling and visibility are OK
Clouds: unknown
Weather: no significant weather observed at this time

METAR text: SGAS 240100Z 18002KT 9999 FEW033 24/22 Q1014
Conditions at: SGAS (ASUNCION/SILVIO , PY) observed 0100 UTC 24 April 2019
Temperature: 24.0°C (75°F)
Dewpoint: 22.0°C (72°F) [RH = 89%]
Pressure (altimeter): 29.94 inches Hg (1014.0 mb)
Winds: from the S (180 degrees) at 2 MPH (2 knots; 1.0 m/s)
Visibility: 6 or more miles (10+ km)
Ceiling: at least 12,000 feet AGL
Clouds: few clouds at 3300 feet AGL
Weather: no significant weather observed at this time

METAR text: SGAS 240000Z 00000KT 9999 FEW033 24/23 Q1014
Conditions at: SGAS (ASUNCION/SILVIO , PY) observed 0000 UTC 24 April 2019
Temperature: 24.0°C (75°F)
Dewpoint: 23.0°C (73°F) [RH = 94%]
Pressure (altimeter): 29.94 inches Hg (1014.0 mb)
Winds: calm
Visibility: 6 or more miles (10+ km)
Ceiling: at least 12,000 feet AGL
Clouds: few clouds at 3300 feet AGL
Weather: no significant weather observed at this time

METAR text: SGAS 232300Z 00000KT 9999 FEW033 25/23 Q1013
Conditions at: SGAS (ASUNCION/SILVIO , PY) observed 2300 UTC 23 April 2019
Temperature: 25.0°C (77°F)
Dewpoint: 23.0°C (73°F) [RH = 89%]
Pressure (altimeter): 29.91 inches Hg (1013.0 mb)
Winds: calm
Visibility: 6 or more miles (10+ km)
Ceiling: at least 12,000 feet AGL
Clouds: few clouds at 3300 feet AGL
Weather: no significant weather observed at this time

METAR text: SGAS 232200Z 00000KT 9999 FEW033 26/23 Q1013
Conditions at: SGAS (ASUNCION/SILVIO , PY) observed 2200 UTC 23 April 2019
Temperature: 26.0°C (79°F)
Dewpoint: 23.0°C (73°F) [RH = 84%]
Pressure (altimeter): 29.91 inches Hg (1013.0 mb)
Winds: calm
Visibility: 6 or more miles (10+ km)
Ceiling: at least 12,000 feet AGL
Clouds: few clouds at 3300 feet AGL
Weather: no significant weather observed at this time

METAR text: SGAS 232100Z 00000KT 9999 FEW033TCU 30/22 Q1013
Conditions at: SGAS (ASUNCION/SILVIO , PY) observed 2100 UTC 23 April 2019
Temperature: 30.0°C (86°F)
Dewpoint: 22.0°C (72°F) [RH = 62%]
Pressure (altimeter): 29.91 inches Hg (1013.0 mb)
Winds: calm
Visibility: 6 or more miles (10+ km)
Ceiling: at least 12,000 feet AGL
Clouds: few clouds at 3300 feet AGL
Weather: no significant weather observed at this time

METAR text: SGAS 232000Z VRB03KT 9999 SCT033 30/22 Q1012
Conditions at: SGAS (ASUNCION/SILVIO , PY) observed 2000 UTC 23 April 2019
Temperature: 30.0°C (86°F)
Dewpoint: 22.0°C (72°F) [RH = 62%]
Pressure (altimeter): 29.88 inches Hg (1012.0 mb)
Winds: variable direction winds at 3 MPH (3 knots; 1.5 m/s)
Visibility: 6 or more miles (10+ km)
Ceiling: at least 12,000 feet AGL
Clouds: scattered clouds at 3300 feet AGL
Weather: no significant weather observed at this time

METAR text: SGAS 231900Z 04004KT 010V080 9999 SCT033 30/22 Q1013
Conditions at: SGAS (ASUNCION/SILVIO , PY) observed 1900 UTC 23 April 2019
Temperature: 30.0°C (86°F)
Dewpoint: 22.0°C (72°F) [RH = 62%]
Pressure (altimeter): 29.91 inches Hg (1013.0 mb)
Winds: from the NE (40 degrees) at 5 MPH (4 knots; 2.1 m/s)
Visibility: 6 or more miles (10+ km)
Ceiling: at least 12,000 feet AGL
Clouds: scattered clouds at 3300 feet AGL
Weather: no significant weather observed at this time

METAR text: SGAS 231800Z 04004KT 330V080 9999 BKN033 30/23 Q1013
Conditions at: SGAS (ASUNCION/SILVIO , PY) observed 1800 UTC 23 April 2019
Temperature: 30.0°C (86°F)
Dewpoint: 23.0°C (73°F) [RH = 66%]
Pressure (altimeter): 29.91 inches Hg (1013.0 mb)
Winds: from the NE (40 degrees) at 5 MPH (4 knots; 2.1 m/s)
Visibility: 6 or more miles (10+ km)
Ceiling: 3300 feet AGL
Clouds: broken clouds at 3300 feet AGL
Weather: no significant weather observed at this time

METAR text: SGAS 231700Z 05004KT 310V100 9999 BKN033 30/23 Q1013
Conditions at: SGAS (ASUNCION/SILVIO , PY) observed 1700 UTC 23 April 2019
Temperature: 30.0°C (86°F)
Dewpoint: 23.0°C (73°F) [RH = 66%]
Pressure (altimeter): 29.91 inches Hg (1013.0 mb)
Winds: from the NE (50 degrees) at 5 MPH (4 knots; 2.1 m/s)
Visibility: 6 or more miles (10+ km)
Ceiling: 3300 feet AGL
Clouds: broken clouds at 3300 feet AGL
Weather: no significant weather observed at this time

METAR text: SGAS 231600Z 07007KT 030V100 9999 BKN033 29/23 Q1014
Conditions at: SGAS (ASUNCION/SILVIO , PY) observed 1600 UTC 23 April 2019
Temperature: 29.0°C (84°F)
Dewpoint: 23.0°C (73°F) [RH = 70%]
Pressure (altimeter): 29.94 inches Hg (1014.0 mb)
Winds: from the ENE (70 degrees) at 8 MPH (7 knots; 3.6 m/s)
Visibility: 6 or more miles (10+ km)
Ceiling: 3300 feet AGL
Clouds: broken clouds at 3300 feet AGL
Weather: no significant weather observed at this time

METAR text: SGAS 231500Z 06006KT 010V110 9999 FEW033 29/23 Q1015
Conditions at: SGAS (ASUNCION/SILVIO , PY) observed 1500 UTC 23 April 2019
Temperature: 29.0°C (84°F)
Dewpoint: 23.0°C (73°F) [RH = 70%]
Pressure (altimeter): 29.97 inches Hg (1015.0 mb)
Winds: from the ENE (60 degrees) at 7 MPH (6 knots; 3.1 m/s)
Visibility: 6 or more miles (10+ km)
Ceiling: at least 12,000 feet AGL
Clouds: few clouds at 3300 feet AGL
Weather: no significant weather observed at this time

METAR text: SGAS 231400Z 09005KT 040V120 CAVOK 27/23 Q1015
Conditions at: SGAS (ASUNCION/SILVIO , PY) observed 1400 UTC 23 April 2019
Temperature: 27.0°C (81°F)
Dewpoint: 23.0°C (73°F) [RH = 79%]
Pressure (altimeter): 29.97 inches Hg (1015.0 mb)
Winds: from the E (90 degrees) at 6 MPH (5 knots; 2.6 m/s)
Visibility: 6 or more miles (10+ km)
Ceiling: ceiling and visibility are OK
Clouds: unknown
Weather: no significant weather observed at this time

METAR text: SGAS 231330Z 11006KT 050V100 CAVOK 27/22 Q1015
Conditions at: SGAS (ASUNCION/SILVIO , PY) observed 1330 UTC 23 April 2019
Temperature: 27.0°C (81°F)
Dewpoint: 22.0°C (72°F) [RH = 74%]
Pressure (altimeter): 29.97 inches Hg (1015.0 mb)
Winds: from the ESE (110 degrees) at 7 MPH (6 knots; 3.1 m/s)
Visibility: 6 or more miles (10+ km)
Ceiling: ceiling and visibility are OK
Clouds: unknown
Weather: no significant weather observed at this time

METAR text: SGAS 231300Z 11007KT 060V140 CAVOK 26/22 Q1015
Conditions at: SGAS (ASUNCION/SILVIO , PY) observed 1300 UTC 23 April 2019
Temperature: 26.0°C (79°F)
Dewpoint: 22.0°C (72°F) [RH = 79%]
Pressure (altimeter): 29.97 inches Hg (1015.0 mb)
Winds: from the ESE (110 degrees) at 8 MPH (7 knots; 3.6 m/s)
Visibility: 6 or more miles (10+ km)
Ceiling: ceiling and visibility are OK
Clouds: unknown
Weather: no significant weather observed at this time

METAR text: SGAS 231230Z 12007KT 080V170 CAVOK 25/21 Q1015
Conditions at: SGAS (ASUNCION/SILVIO , PY) observed 1230 UTC 23 April 2019
Temperature: 25.0°C (77°F)
Dewpoint: 21.0°C (70°F) [RH = 79%]
Pressure (altimeter): 29.97 inches Hg (1015.0 mb)
Winds: from the ESE (120 degrees) at 8 MPH (7 knots; 3.6 m/s)
Visibility: 6 or more miles (10+ km)
Ceiling: ceiling and visibility are OK
Clouds: unknown
Weather: no significant weather observed at this time

Forecast for: SGAS (ASUNCION/SILVIO , PY)
Text: TAF SGAS 242250Z 2500/2600 VRB04KT 9999 SCT027 TX28/2519Z TN22/2509Z
Forecast period: 0000 to 0200 UTC 25 April 2019
Forecast type: FROM: standard forecast or significant change
Winds: variable direction winds at 5 MPH (4 knots; 2.1 m/s)
Visibility: 6 or more miles 10+ km)
Ceiling: at least 12,000 feet AGL
Clouds: scattered clouds at 2700 feet AGL
Weather: no significant weather forecast for this period
Text: BECMG 2502/2505 9000 -RA BKN020
Forecast period: 0200 to 1000 UTC 25 April 2019
Forecast type: BECOMING: Conditions expected to become as follows by 0500 UTC 25 April 2019
Winds: variable direction winds at 5 MPH (4 knots; 2.1 m/s)
Visibility: 6 miles (9 km)
Ceiling: 2000 feet AGL
Clouds: broken clouds at 2000 feet AGL
Weather: -RA  (light rain)
Text: PROB30 2508/2510 9999 VCTS BKN024 FEW040CB
Forecast period: 0800 to 1000 UTC 25 April 2019
Forecast type: PROBABLE: 30 percent likelihood of the following during this time
Visibility: 6 or more miles 10+ km)
Ceiling: 2400 feet AGL
Clouds: broken clouds at 2400 feet AGL
few clouds at 4000 feet AGL
Weather: VCTS  (thunderstorm in vicinity)
Text: BECMG 2510/2512 21008KT 7000 RA BKN020
Forecast period: 1000 to 1500 UTC 25 April 2019
Forecast type: BECOMING: Conditions expected to become as follows by 1200 UTC 25 April 2019
Winds: from the SSW (210 degrees) at 9 MPH (8 knots; 4.1 m/s)
Visibility: 4 miles (7 km)
Ceiling: 2000 feet AGL
Clouds: broken clouds at 2000 feet AGL
Weather: RA  (moderate rain)
Text: BECMG 2515/2518 9999 SCT027
Forecast period: 1500 to 2300 UTC 25 April 2019
Forecast type: BECOMING: Conditions expected to become as follows by 1800 UTC 25 April 2019
Winds: from the SSW (210 degrees) at 9 MPH (8 knots; 4.1 m/s)
Visibility: 6 or more miles 10+ km)
Ceiling: at least 12,000 feet AGL
Clouds: scattered clouds at 2700 feet AGL
Weather: RA  (moderate rain)
Text: PROB30 2518/2520 09006KT 7000 TSRA BKN027 FEW040CB
Forecast period: 1800 to 2000 UTC 25 April 2019
Forecast type: PROBABLE: 30 percent likelihood of the following during this time
Winds: from the E (90 degrees) at 7 MPH (6 knots; 3.1 m/s)
Visibility: 4 miles (7 km)
Ceiling: 2700 feet AGL
Clouds: broken clouds at 2700 feet AGL
few clouds at 4000 feet AGL
Weather: TSRA  (rain associated with thunderstorm(s))
Text: BECMG 2523/2602 9999 SCT030
Forecast period: 2300 UTC 25 April 2019 to 0000 UTC 26 April 2019
Forecast type: BECOMING: Conditions expected to become as follows by 0200 UTC 26 April 2019
Winds: from the SSW (210 degrees) at 9 MPH (8 knots; 4.1 m/s)
Visibility: 6 or more miles 10+ km)
Ceiling: at least 12,000 feet AGL
Clouds: scattered clouds at 3000 feet AGL
Weather: RA  (moderate rain)